OICK  Khoram Abad  Airport

Iran

Add Bookmark
ICAO OICK
IATA KHD
Type Airport
Status Operational
Latitude
33° 26' 7" N
33.435398
Longitude
48° 16' 58" E
48.282902
Local (DST + 5) UTC (GMT + 4)
Apr 18, 2015 07:38 Apr 18, 2015 15:08
Sunrise-Sunset Local UTC
Begin Civil Twilight 06:15 01:45
Sunrise 06:41 02:11
Sunset 07:50 15:20
End Civil Twilight 08:16 15:46
VFR
VFR
MVFR
MVFR
IFR
VFR
LIFR
VFR
Unknown
Unavailable

Current Weather

METAR Observed VFR
OICK 181400Z 27006KT 9000 FEW040 21/M04 Q1015 Sat, Apr 18, 2015 @ 14:00 UTC
(1 Hour, 8 Minutes ago)
Visual Flight Rules
Wind Visibility Clouds Conditions
270° at 6 knots (11 kph) 8,996 m
  • Few at 4,000 ft AGL
  • No significant weather
Temperatures Readings Precipitation
Current Temp
21°C
70°F
Dewpoint
-4°C
25°F
Humidity 18%
Altimeter 29.97" Hg
Sea Level Pressure 1,015 mb
Field Elevation
1,155 m
3,789 ft
None Recorded

Additional weather within a 92.6km radius of OICK

Map ICAO Location
OICJ 67.4km NE (040°)
VFR
VFR
MVFR
MVFR
IFR
VFR
LIFR
VFR
Unknown
Unavailable
-
-

CheckWX.com is intended as a tool to help pilots better visualize weather data. It is not intended as a substitute for an official weather briefing obtained from a Flight Service Station. CheckWX.com does not meet the FAA requirements for an official pre-flight weather briefing. Therefore, it's important that pilots still call and obtain an official FSS pre-flight weather briefing.

© 2007-2015 CheckWX.com
15:08:32 UTC